createdAt,value
2018-06-30T00:01:08.724Z,73.60
2018-06-30T00:03:43.269Z,73.50
2018-06-30T00:06:13.104Z,73.60
2018-06-30T00:08:40.764Z,73.70
2018-06-30T00:11:08.424Z,73.60
2018-06-30T00:13:36.089Z,73.60
2018-06-30T00:16:03.795Z,73.50
2018-06-30T00:18:31.469Z,73.50
2018-06-30T00:20:59.178Z,73.40
2018-06-30T00:23:26.894Z,73.50
2018-06-30T00:25:54.570Z,73.40
2018-06-30T00:28:22.232Z,73.50
2018-06-30T00:30:49.896Z,73.40
2018-06-30T00:33:17.564Z,73.30
2018-06-30T00:35:45.224Z,73.30
2018-06-30T00:38:13.372Z,73.30
2018-06-30T00:40:42.496Z,73.60
2018-06-30T00:43:11.024Z,73.10
2018-06-30T00:45:38.680Z,73.00
2018-06-30T00:48:06.377Z,72.80
2018-06-30T00:50:34.144Z,72.70
2018-06-30T00:53:02.308Z,73.10
2018-06-30T00:55:30.460Z,72.90
2018-06-30T00:57:58.161Z,72.80
2018-06-30T01:00:25.824Z,72.50
2018-06-30T01:02:53.601Z,72.60
2018-06-30T01:05:21.256Z,72.80
2018-06-30T01:07:48.965Z,72.80
2018-06-30T01:10:16.645Z,72.60
2018-06-30T01:12:44.336Z,72.50
2018-06-30T01:15:12.480Z,72.50
2018-06-30T01:20:07.692Z,72.50
2018-06-30T01:22:35.359Z,72.60
2018-06-30T01:25:03.028Z,72.50
2018-06-30T01:27:30.689Z,72.50
2018-06-30T01:29:58.348Z,72.40
2018-06-30T01:32:26.012Z,72.60
2018-06-30T01:34:53.853Z,72.10
2018-06-30T01:37:21.569Z,72.40
2018-06-30T01:39:49.226Z,72.30
2018-06-30T01:42:16.903Z,72.20
2018-06-30T01:44:44.570Z,72.10
2018-06-30T01:47:13.668Z,72.20
2018-06-30T01:49:42.958Z,72.50
2018-06-30T01:52:11.624Z,72.20
2018-06-30T01:54:40.080Z,72.20
2018-06-30T01:57:07.731Z,72.30
2018-06-30T01:59:36.536Z,72.20
2018-06-30T02:02:04.288Z,72.40
2018-06-30T02:04:32.038Z,72.10
2018-06-30T02:06:59.764Z,72.10
2018-06-30T02:09:27.427Z,72.70
2018-06-30T02:11:55.132Z,72.30
2018-06-30T02:14:22.800Z,72.30
2018-06-30T02:16:50.512Z,72.10
2018-06-30T02:19:18.212Z,72.40
2018-06-30T02:21:45.905Z,71.90
2018-06-30T02:24:14.388Z,72.10
2018-06-30T02:26:42.571Z,72.10
2018-06-30T02:29:11.188Z,71.90
2018-06-30T02:31:38.936Z,72.00
2018-06-30T02:34:06.921Z,72.10
2018-06-30T02:36:34.624Z,71.70
2018-06-30T02:39:02.352Z,71.90
2018-06-30T02:41:30.006Z,71.90
2018-06-30T02:43:57.681Z,71.90
2018-06-30T02:46:25.364Z,72.20
2018-06-30T02:48:53.020Z,71.90
2018-06-30T02:51:20.753Z,71.90
2018-06-30T02:53:48.408Z,72.00
2018-06-30T02:56:16.069Z,71.60
2018-06-30T02:58:43.756Z,71.90
2018-06-30T03:01:12.687Z,72.10
2018-06-30T03:03:40.968Z,72.00
2018-06-30T03:06:08.665Z,71.90
2018-06-30T03:08:36.324Z,72.00
2018-06-30T03:11:03.989Z,71.90
2018-06-30T03:13:31.652Z,71.90
2018-06-30T03:15:59.320Z,72.10
2018-06-30T03:18:26.981Z,72.10
2018-06-30T03:20:54.648Z,72.20
2018-06-30T03:23:22.312Z,72.00
2018-06-30T03:25:49.973Z,71.90
2018-06-30T03:28:17.628Z,72.10
2018-06-30T03:30:45.292Z,71.60
2018-06-30T03:33:13.741Z,71.50
2018-06-30T03:35:43.260Z,71.60
2018-06-30T03:38:11.678Z,71.50
2018-06-30T03:40:40.137Z,71.10
2018-06-30T03:43:07.855Z,71.40
2018-06-30T03:45:35.749Z,71.30
2018-06-30T03:48:03.509Z,71.60
2018-06-30T03:50:31.229Z,71.30
2018-06-30T03:52:58.892Z,71.70
2018-06-30T03:55:26.548Z,71.50
2018-06-30T03:57:54.260Z,71.60
2018-06-30T04:00:21.960Z,71.70
2018-06-30T04:02:49.669Z,71.60
2018-06-30T04:05:17.320Z,71.70
2018-06-30T04:07:45.034Z,71.50
2018-06-30T04:10:13.385Z,71.10
2018-06-30T04:12:43.017Z,71.20
2018-06-30T04:15:12.840Z,71.30
2018-06-30T04:17:40.987Z,71.50
2018-06-30T04:20:08.700Z,71.30
2018-06-30T04:22:36.365Z,71.50
2018-06-30T04:25:04.393Z,71.90
2018-06-30T04:27:32.057Z,71.60
2018-06-30T04:29:59.717Z,71.50
2018-06-30T04:32:27.408Z,71.70
2018-06-30T04:34:55.146Z,71.10
2018-06-30T04:37:22.940Z,71.40
2018-06-30T04:39:50.616Z,71.30
2018-06-30T04:42:18.288Z,71.50
2018-06-30T04:44:45.960Z,71.40
2018-06-30T04:47:15.156Z,71.60
2018-06-30T04:52:14.288Z,70.90
2018-06-30T04:54:43.117Z,71.20
2018-06-30T04:57:13.160Z,71.10
2018-06-30T04:59:43.343Z,70.90
2018-06-30T05:02:13.189Z,71.60
2018-06-30T05:04:43.105Z,71.00
2018-06-30T05:09:39.372Z,70.90
2018-06-30T05:12:07.042Z,71.20
2018-06-30T05:14:34.806Z,70.90
2018-06-30T05:17:02.480Z,71.00
2018-06-30T05:19:30.285Z,70.60
2018-06-30T05:21:57.984Z,70.90
2018-06-30T05:24:25.757Z,71.00
2018-06-30T05:26:53.419Z,70.10
2018-06-30T05:29:21.132Z,70.40
2018-06-30T05:31:49.116Z,70.50
2018-06-30T05:34:16.804Z,70.30
2018-06-30T05:36:45.813Z,70.30
2018-06-30T05:39:14.970Z,70.20
2018-06-30T05:41:43.800Z,70.20
2018-06-30T05:44:13.200Z,70.90
2018-06-30T05:46:43.549Z,70.00
2018-06-30T05:49:12.609Z,70.90
2018-06-30T05:51:42.324Z,70.40
2018-06-30T05:54:11.002Z,69.90
2018-06-30T05:56:38.707Z,70.00
2018-06-30T05:59:08.509Z,69.50
2018-06-30T06:01:36.307Z,69.70
2018-06-30T06:04:04.168Z,70.00
2018-06-30T06:06:31.845Z,70.50
2018-06-30T06:08:59.553Z,70.90
2018-06-30T06:11:27.260Z,70.90
2018-06-30T06:13:55.872Z,71.10
2018-06-30T06:16:23.570Z,71.40
2018-06-30T06:18:51.273Z,71.10
2018-06-30T06:21:18.965Z,71.30
2018-06-30T06:23:46.773Z,71.10
2018-06-30T06:26:14.456Z,70.70
2018-06-30T06:28:43.188Z,71.10
2018-06-30T06:31:11.172Z,71.60
2018-06-30T06:33:43.229Z,71.20
2018-06-30T06:36:12.689Z,71.10
2018-06-30T06:38:51.873Z,71.00
2018-06-30T06:41:19.932Z,70.40
2018-06-30T06:43:47.692Z,70.70
2018-06-30T06:46:15.410Z,70.60
2018-06-30T06:48:43.793Z,71.60
2018-06-30T06:51:13.005Z,71.60
2018-06-30T06:53:42.305Z,69.80
2018-06-30T06:56:10.745Z,69.60
2018-06-30T06:58:38.444Z,69.00
2018-06-30T07:01:06.117Z,68.40
2018-06-30T07:03:33.997Z,67.70
2018-06-30T07:06:01.681Z,66.70
2018-06-30T07:08:29.348Z,66.70
2018-06-30T07:10:57.021Z,66.00
2018-06-30T07:13:24.707Z,65.80
2018-06-30T07:15:52.390Z,65.80
2018-06-30T07:18:20.104Z,64.50
2018-06-30T07:20:47.789Z,65.00
2018-06-30T07:23:15.466Z,63.80
2018-06-30T07:25:43.781Z,64.20
2018-06-30T07:28:13.128Z,64.80
2018-06-30T07:30:41.690Z,64.90
2018-06-30T07:33:11.061Z,65.40
2018-06-30T07:35:38.947Z,64.70
2018-06-30T07:38:06.632Z,64.40
2018-06-30T07:40:34.309Z,63.70
2018-06-30T07:43:02.018Z,64.20
2018-06-30T07:45:29.741Z,63.70
2018-06-30T07:47:57.408Z,63.60
2018-06-30T07:50:25.161Z,64.10
2018-06-30T07:52:52.816Z,64.00
2018-06-30T07:55:20.632Z,63.60
2018-06-30T07:57:48.296Z,63.50
2018-06-30T08:00:16.004Z,63.90
2018-06-30T08:02:44.748Z,63.70
2018-06-30T08:05:13.421Z,61.70
2018-06-30T08:07:43.517Z,62.30
2018-06-30T08:10:13.142Z,63.00
2018-06-30T08:12:42.456Z,59.00
2018-06-30T08:15:11.285Z,62.10
2018-06-30T08:17:39.306Z,61.60
2018-06-30T08:20:07.035Z,59.50
2018-06-30T08:22:34.940Z,59.70
2018-06-30T08:25:02.612Z,59.90
2018-06-30T08:27:30.295Z,60.00
2018-06-30T08:29:58.020Z,57.50
2018-06-30T08:32:25.701Z,55.80
2018-06-30T08:34:53.392Z,57.70
2018-06-30T08:37:21.092Z,58.50
2018-06-30T08:39:49.295Z,57.00
2018-06-30T08:42:16.959Z,57.30
2018-06-30T08:44:44.637Z,58.30
2018-06-30T08:47:12.469Z,58.00
2018-06-30T08:49:41.304Z,57.50
2018-06-30T08:52:09.008Z,56.50
2018-06-30T08:54:36.685Z,54.00
2018-06-30T08:57:04.404Z,55.00
2018-06-30T08:59:32.208Z,55.40
2018-06-30T09:01:59.893Z,56.20
2018-06-30T09:04:27.568Z,57.70
2018-06-30T09:06:55.240Z,59.10
2018-06-30T09:09:22.916Z,60.50
2018-06-30T09:11:50.616Z,61.60
2018-06-30T09:14:18.345Z,62.50
2018-06-30T09:16:46.009Z,62.70
2018-06-30T09:19:14.515Z,62.40
2018-06-30T09:21:43.710Z,63.10
2018-06-30T09:24:13.326Z,63.70
2018-06-30T09:26:43.437Z,63.60
2018-06-30T09:29:11.168Z,63.20
2018-06-30T09:31:38.881Z,63.20
2018-06-30T09:34:06.968Z,63.80
2018-06-30T09:36:34.681Z,61.30
2018-06-30T09:39:02.393Z,60.90
2018-06-30T09:41:30.969Z,62.30
2018-06-30T09:43:58.661Z,60.60
2018-06-30T09:46:26.349Z,60.50
2018-06-30T09:48:55.277Z,61.60
2018-06-30T09:51:22.956Z,63.60
2018-06-30T09:53:50.672Z,61.80
2018-06-30T09:56:18.366Z,61.20
2018-06-30T09:58:46.076Z,60.40
2018-06-30T10:01:16.473Z,60.40
2018-06-30T10:03:46.483Z,60.80
2018-06-30T10:06:16.165Z,62.80
2018-06-30T10:08:46.607Z,60.80
2018-06-30T10:11:16.496Z,64.00
2018-06-30T10:13:46.020Z,61.90
2018-06-30T10:16:15.845Z,62.80
2018-06-30T10:18:47.113Z,65.00
2018-06-30T10:21:16.870Z,65.60
2018-06-30T10:23:46.351Z,64.90
2018-06-30T10:26:18.233Z,65.00
2018-06-30T10:28:46.132Z,66.10
2018-06-30T10:31:13.801Z,64.90
2018-06-30T10:33:43.564Z,66.50
2018-06-30T10:36:13.491Z,67.20
2018-06-30T10:38:43.164Z,64.90
2018-06-30T10:41:12.358Z,65.60
2018-06-30T10:43:41.306Z,65.50
2018-06-30T10:46:09.014Z,66.60
2018-06-30T10:48:36.691Z,65.80
2018-06-30T10:51:04.370Z,65.90
2018-06-30T10:53:32.211Z,66.50
2018-06-30T10:55:59.888Z,66.60
2018-06-30T10:58:27.640Z,66.30
2018-06-30T11:00:55.300Z,65.40
2018-06-30T11:03:23.110Z,63.90
2018-06-30T11:05:50.788Z,65.50
2018-06-30T11:08:18.488Z,65.80
2018-06-30T11:10:46.148Z,65.70
2018-06-30T11:15:43.016Z,67.20
2018-06-30T11:18:11.309Z,67.70
2018-06-30T11:20:39.221Z,68.50
2018-06-30T11:23:06.895Z,67.50
2018-06-30T11:25:34.569Z,67.80
2018-06-30T11:28:02.588Z,67.60
2018-06-30T11:30:30.313Z,68.40
2018-06-30T11:32:58.017Z,68.60
2018-06-30T11:35:25.849Z,68.40
2018-06-30T11:37:53.521Z,68.30
2018-06-30T11:40:21.184Z,67.90
2018-06-30T11:42:48.867Z,68.20
2018-06-30T11:45:16.536Z,68.50
2018-06-30T11:47:44.221Z,68.10
2018-06-30T11:52:42.670Z,68.70
2018-06-30T11:55:10.473Z,66.10
2018-06-30T11:57:38.144Z,66.90
2018-06-30T12:00:05.938Z,66.00
2018-06-30T12:02:33.600Z,68.50
2018-06-30T12:05:01.305Z,65.90
2018-06-30T12:07:28.977Z,68.30
2018-06-30T12:09:56.678Z,68.90
2018-06-30T12:12:24.345Z,67.80
2018-06-30T12:14:52.018Z,67.50
2018-06-30T12:17:19.685Z,67.20
2018-06-30T12:19:47.355Z,68.10
2018-06-30T12:22:15.041Z,67.90
2018-06-30T12:24:43.272Z,68.10
2018-06-30T12:27:11.650Z,69.20
2018-06-30T12:29:39.319Z,69.60
2018-06-30T12:32:07.122Z,69.60
2018-06-30T12:34:34.705Z,69.10
2018-06-30T12:37:02.385Z,68.20
2018-06-30T12:39:30.096Z,69.60
2018-06-30T12:41:57.777Z,68.80
2018-06-30T12:44:25.501Z,69.00
2018-06-30T12:46:53.173Z,68.00
2018-06-30T12:51:48.305Z,69.40
2018-06-30T12:54:16.010Z,70.40
2018-06-30T12:56:43.770Z,69.70
2018-06-30T12:59:13.294Z,69.90
2018-06-30T13:01:43.137Z,70.00
2018-06-30T13:04:12.060Z,69.40
2018-06-30T13:06:40.457Z,70.00
2018-06-30T13:09:10.137Z,69.40
2018-06-30T13:11:37.920Z,69.90
2018-06-30T13:14:05.623Z,69.60
2018-06-30T13:16:33.373Z,67.80
2018-06-30T13:19:01.044Z,69.20
2018-06-30T13:21:28.708Z,69.30
2018-06-30T13:23:56.410Z,69.60
2018-06-30T13:26:24.116Z,69.40
2018-06-30T13:28:51.895Z,69.10
2018-06-30T13:31:19.496Z,68.80
2018-06-30T13:33:47.164Z,69.60
2018-06-30T13:36:14.853Z,70.00
2018-06-30T13:38:43.520Z,69.70
2018-06-30T13:41:13.176Z,70.30
2018-06-30T13:43:43.102Z,70.00
2018-06-30T13:46:12.257Z,70.30
2018-06-30T13:48:40.485Z,70.50
2018-06-30T13:51:08.177Z,68.60
2018-06-30T13:53:35.889Z,69.60
2018-06-30T13:56:03.568Z,70.50
2018-06-30T13:58:31.231Z,70.30
2018-06-30T14:00:59.013Z,70.30
2018-06-30T14:03:26.637Z,70.80
2018-06-30T14:05:54.317Z,71.00
2018-06-30T14:08:22.042Z,70.40
2018-06-30T14:10:49.716Z,70.90
2018-06-30T14:13:17.985Z,70.50
2018-06-30T14:15:45.659Z,70.60
2018-06-30T14:18:14.431Z,70.00
2018-06-30T14:20:44.295Z,70.60
2018-06-30T14:23:14.785Z,70.60
2018-06-30T14:25:43.221Z,70.10
2018-06-30T14:28:13.028Z,70.60
2018-06-30T14:30:42.308Z,70.00
2018-06-30T14:33:10.626Z,70.50
2018-06-30T14:35:38.296Z,70.00
2018-06-30T14:38:05.961Z,70.30
2018-06-30T14:40:33.660Z,70.00
2018-06-30T14:43:01.320Z,70.40
2018-06-30T14:45:29.000Z,70.90
2018-06-30T14:50:24.096Z,70.60
2018-06-30T14:52:51.763Z,69.60
2018-06-30T14:55:19.476Z,70.80
2018-06-30T14:57:47.191Z,70.40
2018-06-30T15:00:14.944Z,70.90
2018-06-30T15:02:43.665Z,70.60
2018-06-30T15:05:13.585Z,70.60
2018-06-30T15:07:42.764Z,70.00
2018-06-30T15:10:10.541Z,70.40
2018-06-30T15:12:38.258Z,70.80
2018-06-30T15:15:05.956Z,70.50
2018-06-30T15:17:33.630Z,71.00
2018-06-30T15:20:01.321Z,70.70
2018-06-30T15:22:28.998Z,70.40
2018-06-30T15:24:56.660Z,70.90
2018-06-30T15:27:24.320Z,71.30
2018-06-30T15:29:51.981Z,71.50
2018-06-30T15:32:19.653Z,71.30
2018-06-30T15:34:47.315Z,71.00
2018-06-30T15:37:15.049Z,71.10
2018-06-30T15:39:43.709Z,70.90
2018-06-30T15:42:12.664Z,70.50
2018-06-30T15:44:42.447Z,70.50
2018-06-30T15:47:10.564Z,70.10
2018-06-30T15:49:38.257Z,71.10
2018-06-30T15:52:06.119Z,68.80
2018-06-30T15:54:33.821Z,67.00
2018-06-30T15:57:01.495Z,66.30
2018-06-30T15:59:29.161Z,65.20
2018-06-30T16:01:56.822Z,65.00
2018-06-30T16:04:24.503Z,64.30
2018-06-30T16:06:52.173Z,63.80
2018-06-30T16:09:19.835Z,63.30
2018-06-30T16:11:47.548Z,64.20
2018-06-30T16:14:15.224Z,63.90
2018-06-30T16:16:43.594Z,63.50
2018-06-30T16:19:13.162Z,64.10
2018-06-30T16:21:42.399Z,64.40
2018-06-30T16:24:10.613Z,65.10
2018-06-30T16:26:38.419Z,65.00
2018-06-30T16:29:06.099Z,64.50
2018-06-30T16:31:33.777Z,64.80
2018-06-30T16:36:28.879Z,65.30
2018-06-30T16:38:56.577Z,65.70
2018-06-30T16:41:24.382Z,65.10
2018-06-30T16:43:52.061Z,65.30
2018-06-30T16:48:47.138Z,66.20
2018-06-30T16:51:14.801Z,66.20
2018-06-30T16:53:43.772Z,66.00
2018-06-30T16:56:13.083Z,66.20
2018-06-30T16:58:42.359Z,65.90
2018-06-30T17:01:10.609Z,66.20
2018-06-30T17:03:38.357Z,66.10
2018-06-30T17:06:06.078Z,66.20
2018-06-30T17:08:33.784Z,65.50
2018-06-30T17:11:01.473Z,65.60
2018-06-30T17:13:29.172Z,65.10
2018-06-30T17:15:56.880Z,65.20
2018-06-30T17:18:24.560Z,65.30
2018-06-30T17:20:52.340Z,65.60
2018-06-30T17:23:20.040Z,65.50
2018-06-30T17:25:47.858Z,65.90
2018-06-30T17:28:15.495Z,66.10
2018-06-30T17:30:44.277Z,66.80
2018-06-30T17:33:13.103Z,65.20
2018-06-30T17:35:41.696Z,65.60
2018-06-30T17:38:09.373Z,66.20
2018-06-30T17:40:37.085Z,66.30
2018-06-30T17:43:04.810Z,65.90
2018-06-30T17:45:32.528Z,65.10
2018-06-30T17:48:00.224Z,64.80
2018-06-30T17:50:28.036Z,65.70
2018-06-30T17:52:55.867Z,65.20
2018-06-30T17:55:23.541Z,66.00
2018-06-30T17:57:51.321Z,66.60
2018-06-30T18:00:19.056Z,66.40
2018-06-30T18:02:46.801Z,68.40
2018-06-30T18:05:14.481Z,67.20
2018-06-30T18:07:43.980Z,66.60
2018-06-30T18:10:13.923Z,67.40
2018-06-30T18:12:44.012Z,66.80
2018-06-30T18:15:13.796Z,66.60
2018-06-30T18:17:42.355Z,68.00
2018-06-30T18:20:10.662Z,66.70
2018-06-30T18:25:05.993Z,65.20
2018-06-30T18:27:33.664Z,65.20
2018-06-30T18:30:01.370Z,64.40
2018-06-30T18:32:29.067Z,64.10
2018-06-30T18:34:56.752Z,64.10
2018-06-30T18:37:24.473Z,63.20
2018-06-30T18:39:52.152Z,63.20
2018-06-30T18:42:19.915Z,62.90
2018-06-30T18:44:47.604Z,63.00
2018-06-30T18:47:15.314Z,63.20
2018-06-30T18:49:43.977Z,63.50
2018-06-30T18:52:13.376Z,63.80
2018-06-30T18:54:42.744Z,63.90
2018-06-30T18:57:12.790Z,63.90
2018-06-30T18:59:42.642Z,64.10
2018-06-30T19:02:12.184Z,64.40
2018-06-30T19:04:39.877Z,64.30
2018-06-30T19:07:07.666Z,64.40
2018-06-30T19:09:35.397Z,64.60
2018-06-30T19:12:03.076Z,64.80
2018-06-30T19:14:30.789Z,64.90
2018-06-30T19:16:58.488Z,65.10
2018-06-30T19:19:26.217Z,65.10
2018-06-30T19:21:53.887Z,65.40
2018-06-30T19:24:21.573Z,65.30
2018-06-30T19:26:49.293Z,65.80
2018-06-30T19:29:16.993Z,66.60
2018-06-30T19:31:44.771Z,66.30
2018-06-30T19:34:13.010Z,66.30
2018-06-30T19:36:40.842Z,66.40
2018-06-30T19:39:09.717Z,66.50
2018-06-30T19:41:37.537Z,66.20
2018-06-30T19:44:05.220Z,66.60
2018-06-30T19:46:32.912Z,66.40
2018-06-30T19:49:00.646Z,66.70
2018-06-30T19:51:28.389Z,66.40
2018-06-30T19:53:56.115Z,66.80
2018-06-30T19:56:23.879Z,67.00
2018-06-30T19:58:51.609Z,66.90
2018-06-30T20:01:19.340Z,68.00
2018-06-30T20:03:47.056Z,67.90
2018-06-30T20:06:14.779Z,68.00
2018-06-30T20:08:42.482Z,67.80
2018-06-30T20:11:10.355Z,67.90
2018-06-30T20:13:38.262Z,68.10
2018-06-30T20:16:06.148Z,66.90
2018-06-30T20:18:34.045Z,67.40
2018-06-30T20:21:01.851Z,67.20
2018-06-30T20:23:29.924Z,68.20
2018-06-30T20:25:57.787Z,68.70
2018-06-30T20:28:25.582Z,69.00
2018-06-30T20:30:53.292Z,69.30
2018-06-30T20:33:21.539Z,69.20
2018-06-30T20:35:49.438Z,68.90
2018-06-30T20:38:17.493Z,69.20
2018-06-30T20:40:46.267Z,69.30
2018-06-30T20:43:14.075Z,68.80
2018-06-30T20:45:43.961Z,69.20
2018-06-30T20:48:14.740Z,69.00
2018-06-30T20:50:43.520Z,68.70
2018-06-30T20:53:13.771Z,68.70
2018-06-30T20:55:43.783Z,68.20
2018-06-30T20:58:13.055Z,68.30
2018-06-30T21:00:40.813Z,68.10
2018-06-30T21:03:12.687Z,68.00
2018-06-30T21:05:41.059Z,68.40
2018-06-30T21:08:09.145Z,68.40
2018-06-30T21:10:36.829Z,68.40
2018-06-30T21:13:04.554Z,68.10
2018-06-30T21:15:32.366Z,68.20
2018-06-30T21:18:00.081Z,68.10
2018-06-30T21:20:27.826Z,67.90
2018-06-30T21:22:55.503Z,68.40
2018-06-30T21:25:23.333Z,68.60
2018-06-30T21:27:51.032Z,67.90
2018-06-30T21:30:19.647Z,68.20
2018-06-30T21:32:47.381Z,68.10
2018-06-30T21:35:15.071Z,68.00
2018-06-30T21:37:43.688Z,68.10
2018-06-30T21:40:12.745Z,68.20
2018-06-30T21:42:41.189Z,68.10
2018-06-30T21:45:09.028Z,68.10
2018-06-30T21:47:36.705Z,68.30
2018-06-30T21:50:04.559Z,68.20
2018-06-30T21:52:32.234Z,68.10
2018-06-30T21:54:59.962Z,68.10
2018-06-30T21:57:27.637Z,67.80
2018-06-30T21:59:55.321Z,67.90
2018-06-30T22:02:22.996Z,67.70
2018-06-30T22:04:51.006Z,68.40
2018-06-30T22:07:18.701Z,67.80
2018-06-30T22:09:46.376Z,67.70
2018-06-30T22:12:14.596Z,67.50
2018-06-30T22:14:43.821Z,67.70
2018-06-30T22:17:12.848Z,67.90
2018-06-30T22:19:43.237Z,68.00
2018-06-30T22:22:13.079Z,68.00
2018-06-30T22:24:40.798Z,68.00
2018-06-30T22:27:08.475Z,67.60
2018-06-30T22:29:36.164Z,67.70
2018-06-30T22:32:03.845Z,67.50
2018-06-30T22:34:31.634Z,67.70
2018-06-30T22:36:59.338Z,67.30
2018-06-30T22:39:32.746Z,67.70
2018-06-30T22:42:00.415Z,67.80
2018-06-30T22:44:28.132Z,67.50
2018-06-30T22:46:56.645Z,67.60
2018-06-30T22:49:24.357Z,67.20
2018-06-30T22:51:52.027Z,67.10
2018-06-30T22:54:19.777Z,67.40
2018-06-30T22:59:14.910Z,67.20
2018-06-30T23:01:43.696Z,67.20
2018-06-30T23:04:14.001Z,67.40
2018-06-30T23:06:44.354Z,67.30
2018-06-30T23:09:14.114Z,67.40
2018-06-30T23:11:43.880Z,67.50
2018-06-30T23:14:12.747Z,67.50
2018-06-30T23:16:40.848Z,67.50
2018-06-30T23:19:08.525Z,67.40
2018-06-30T23:21:36.208Z,67.50
2018-06-30T23:24:03.889Z,67.50
2018-06-30T23:26:31.563Z,67.30
2018-06-30T23:28:59.228Z,67.50
2018-06-30T23:31:26.910Z,67.40
2018-06-30T23:33:55.217Z,67.70
2018-06-30T23:36:22.901Z,67.50
2018-06-30T23:41:18.012Z,67.70
2018-06-30T23:43:45.688Z,67.40
2018-06-30T23:48:42.704Z,67.70
2018-06-30T23:51:12.100Z,67.50
2018-06-30T23:53:39.812Z,67.10
2018-06-30T23:56:07.500Z,67.70
2018-06-30T23:58:35.308Z,67.80
